Time;durP1;ratioP1;P1;durP2;ratioP2;P2;SDS_P1;SDS_P2;PMS_P1;PMS_P2;Temp;Humidity;BMP_temperature;BMP_pressure;BME280_temperature;BME280_humidity;BME280_pressure;Samples;Min_cycle;Max_cycle;Signal;HPM_P1;HPM_P2
2023/02/22 00:01:20;;;;;;;;;;;;;;;;;;6154506;23;19939;-76
2023/02/22 00:03:46;;;;;;;;;;;;;;;;;;6153316;23;19916;-76
2023/02/22 00:06:12;;;;;;;;;;;;;;;;;;6155419;23;19904;-76
2023/02/22 00:08:37;;;;;;;;;;;;;;;;;;6155801;23;20338;-78
2023/02/22 00:11:02;;;;;;;;;;;;;;;;;;6156013;23;19963;-77
2023/02/22 00:13:28;;;;;;;;;;;;;;;;;;6179176;23;20098;-76
2023/02/22 00:15:53;;;;;;;;;;;;;;;;;;6155428;23;19979;-77
2023/02/22 00:18:18;;;;;;;;;;;;;;;;;;6155701;23;19913;-75
2023/02/22 00:20:44;;;;;;;;;;;;;;;;;;6155170;23;19913;-74
2023/02/22 00:23:10;;;;;;;;;;;;;;;;;;6154093;23;20334;-78
2023/02/22 00:25:36;;;;;;;;;;;;;;;;;;6155348;23;19983;-77
2023/02/22 00:28:03;;;;;;;;;;;;;;;;;;6178980;23;20349;-77
2023/02/22 00:30:30;;;;;;;;;;;;;;;;;;6155631;23;20165;-77
2023/02/22 00:32:56;;;;;;;;;;;;;;;;;;6179043;23;20250;-77
2023/02/22 00:35:21;;;;;;;;;;;;;;;;;;6178622;23;19908;-77
2023/02/22 00:37:46;;;;;;;;;;;;;;;;;;6155036;23;19916;-77
2023/02/22 00:40:12;;;;;;;;;;;;;;;;;;6155442;23;19912;-77
2023/02/22 00:42:37;;;;;;;;;;;;;;;;;;6155032;23;20224;-77
2023/02/22 00:45:02;;;;;;;;;;;;;;;;;;6154314;23;19909;-77
2023/02/22 00:47:29;;;;;;;;;;;;;;;;;;6155193;23;20393;-77
2023/02/22 00:49:54;;;;;;;;;;;;;;;;;;6156302;23;19908;-77
2023/02/22 00:52:19;;;;;;;;;;;;;;;;;;6156134;23;20454;-76
2023/02/22 00:54:45;;;;;;;;;;;;;;;;;;6155401;23;20024;-77
2023/02/22 00:57:10;;;;;;;;;;;;;;;;;;6180044;23;19909;-76
2023/02/22 00:59:35;;;;;;;;;;;;;;;;;;6179672;23;20369;-76
2023/02/22 01:02:01;;;;;;;;;;;;;;;;;;6156953;23;19963;-76
2023/02/22 01:04:26;;;;;;;;;;;;;;;;;;6155213;23;19915;-76
2023/02/22 01:06:52;;;;;;;;;;;;;;;;;;6156457;23;20253;-77
2023/02/22 01:09:18;;;;;;;;;;;;;;;;;;6178572;23;19908;-76
2023/02/22 01:11:44;;;;;;;;;;;;;;;;;;6156897;23;19908;-77
2023/02/22 01:14:10;;;;;;;;;;;;;;;;;;6156515;23;19913;-76
2023/02/22 01:16:35;;;;;;;;;;;;;;;;;;6153634;23;20339;-77
2023/02/22 01:19:01;;;;;;;;;;;;;;;;;;6178862;23;19915;-77
2023/02/22 01:21:26;;;;;;;;;;;;;;;;;;6179213;23;19909;-77
2023/02/22 01:23:53;;;;;;;;;;;;;;;;;;6179439;23;19915;-77
2023/02/22 01:26:19;;;;;;;;;;;;;;;;;;6177675;23;19955;-76
2023/02/22 01:28:45;;;;;;;;;;;;;;;;;;6155268;23;19912;-76
2023/02/22 01:31:11;;;;;;;;;;;;;;;;;;6155635;23;19916;-76
2023/02/22 01:33:36;;;;;;;;;;;;;;;;;;6153603;23;20212;-76
2023/02/22 01:36:02;;;;;;;;;;;;;;;;;;6154737;23;20004;-76
2023/02/22 01:38:28;;;;;;;;;;;;;;;;;;6155451;23;20227;-77
2023/02/22 01:40:53;;;;;;;;;;;;;;;;;;6154119;23;19947;-77
2023/02/22 01:43:18;;;;;;;;;;;;;;;;;;6153285;23;19967;-77
2023/02/22 01:45:45;;;;;;;;;;;;;;;;;;6178602;23;20346;-77
2023/02/22 01:48:11;;;;;;;;;;;;;;;;;;6179622;23;20330;-77
2023/02/22 01:50:36;;;;;;;;;;;;;;;;;;6129623;23;19919;-77
2023/02/22 01:53:02;;;;;;;;;;;;;;;;;;6154365;23;20250;-78
2023/02/22 01:55:27;;;;;;;;;;;;;;;;;;6155119;23;19983;-77
2023/02/22 01:57:52;;;;;;;;;;;;;;;;;;6178500;23;20364;-75
2023/02/22 02:00:19;;;;;;;;;;;;;;;;;;6177515;23;19947;-76
2023/02/22 02:02:45;;;;;;;;;;;;;;;;;;6154814;23;19920;-77
2023/02/22 02:05:10;;;;;;;;;;;;;;;;;;6152973;23;19913;-75
2023/02/22 02:07:36;;;;;;;;;;;;;;;;;;6153326;23;20242;-77
2023/02/22 02:10:01;;;;;;;;;;;;;;;;;;6154954;23;19936;-78
2023/02/22 02:12:26;;;;;;;;;;;;;;;;;;6178025;23;19908;-76
2023/02/22 02:14:52;;;;;;;;;;;;;;;;;;6177108;23;19913;-75
2023/02/22 02:17:19;;;;;;;;;;;;;;;;;;6154525;23;19916;-76
2023/02/22 02:19:44;;;;;;;;;;;;;;;;;;6177916;23;19913;-76
2023/02/22 02:22:11;;;;;;;;;;;;;;;;;;6177840;23;19909;-77
2023/02/22 02:24:38;;;;;;;;;;;;;;;;;;6153029;23;19936;-77
2023/02/22 02:27:04;;;;;;;;;;;;;;;;;;6157356;23;19909;-77
2023/02/22 02:29:29;;;;;;;;;;;;;;;;;;6157854;23;19943;-78
2023/02/22 02:31:54;;;;;;;;;;;;;;;;;;6180592;23;19912;-76
2023/02/22 02:34:20;;;;;;;;;;;;;;;;;;6157855;23;19908;-76
2023/02/22 02:36:46;;;;;;;;;;;;;;;;;;6156083;23;19908;-78
2023/02/22 02:39:11;;;;;;;;;;;;;;;;;;6157734;23;20357;-76
2023/02/22 02:41:36;;;;;;;;;;;;;;;;;;6181339;23;19910;-77
2023/02/22 02:44:02;;;;;;;;;;;;;;;;;;6181355;23;19988;-76
2023/02/22 02:46:28;;;;;;;;;;;;;;;;;;6157769;23;19908;-76
2023/02/22 02:48:55;;;;;;;;;;;;;;;;;;6157384;23;19916;-76
2023/02/22 02:51:21;;;;;;;;;;;;;;;;;;6158157;23;19958;-74
2023/02/22 02:53:46;;;;;;;;;;;;;;;;;;6181590;23;20503;-76
2023/02/22 02:56:12;;;;;;;;;;;;;;;;;;6181030;23;19987;-76
2023/02/22 02:58:37;;;;;;;;;;;;;;;;;;6156517;23;19928;-77
2023/02/22 03:01:05;;;;;;;;;;;;;;;;;;6158207;23;20290;-77
2023/02/22 03:03:32;;;;;;;;;;;;;;;;;;6180777;23;19913;-77
2023/02/22 03:05:58;;;;;;;;;;;;;;;;;;6180823;23;19908;-77
2023/02/22 03:08:23;;;;;;;;;;;;;;;;;;6157767;23;19908;-77
2023/02/22 03:10:49;;;;;;;;;;;;;;;;;;6157817;23;20342;-77
2023/02/22 03:13:16;;;;;;;;;;;;;;;;;;6156279;23;19909;-78
2023/02/22 03:15:42;;;;;;;;;;;;;;;;;;6180650;23;19947;-76
2023/02/22 03:18:07;;;;;;;;;;;;;;;;;;6181145;23;20326;-76
2023/02/22 03:20:32;;;;;;;;;;;;;;;;;;6155298;23;20334;-77
2023/02/22 03:23:00;;;;;;;;;;;;;;;;;;6181120;23;19964;-77
2023/02/22 03:25:25;;;;;;;;;;;;;;;;;;6180648;23;19913;-78
2023/02/22 03:28:01;;;;;;;;;;;;;;;;;;6157934;23;19987;-77
2023/02/22 03:30:27;;;;;;;;;;;;;;;;;;6181177;23;19908;-77
2023/02/22 03:32:53;;;;;;;;;;;;;;;;;;6180906;23;19960;-77
2023/02/22 03:35:20;;;;;;;;;;;;;;;;;;6180631;23;20294;-78
2023/02/22 03:37:46;;;;;;;;;;;;;;;;;;6155740;23;19908;-77
2023/02/22 03:40:15;;;;;;;;;;;;;;;;;;6178986;23;19914;-78
2023/02/22 03:42:43;;;;;;;;;;;;;;;;;;6179603;23;20401;-78
2023/02/22 03:45:09;;;;;;;;;;;;;;;;;;6179055;23;19913;-76
2023/02/22 03:47:35;;;;;;;;;;;;;;;;;;6154628;23;19936;-76
2023/02/22 03:50:05;;;;;;;;;;;;;;;;;;6154622;23;19916;-75
2023/02/22 03:52:31;;;;;;;;;;;;;;;;;;6154956;23;19913;-77
2023/02/22 03:54:56;;;;;;;;;;;;;;;;;;6155027;23;20405;-77
2023/02/22 03:57:22;;;;;;;;;;;;;;;;;;6179283;23;20334;-78
2023/02/22 03:59:51;;;;;;;;;;;;;;;;;;6178462;23;19913;-77
2023/02/22 04:02:17;;;;;;;;;;;;;;;;;;6155865;23;19940;-77
2023/02/22 04:04:43;;;;;;;;;;;;;;;;;;6154161;23;19916;-77
2023/02/22 04:07:09;;;;;;;;;;;;;;;;;;6154428;23;20261;-77
2023/02/22 04:09:34;;;;;;;;;;;;;;;;;;6154418;23;20354;-77
2023/02/22 04:11:59;;;;;;;;;;;;;;;;;;6154160;23;19916;-77
2023/02/22 04:14:26;;;;;;;;;;;;;;;;;;6181279;23;19908;-76
2023/02/22 04:16:51;;;;;;;;;;;;;;;;;;6181472;23;20356;-78
2023/02/22 04:19:16;;;;;;;;;;;;;;;;;;6181686;23;19956;-77
2023/02/22 04:21:42;;;;;;;;;;;;;;;;;;6180192;23;19976;-78
2023/02/22 04:24:14;;;;;;;;;;;;;;;;;;6179154;23;19908;-77
2023/02/22 04:26:41;;;;;;;;;;;;;;;;;;6178585;23;19908;-77
2023/02/22 04:29:07;;;;;;;;;;;;;;;;;;6178428;23;20353;-78
2023/02/22 04:31:36;;;;;;;;;;;;;;;;;;6179257;23;19908;-77
2023/02/22 04:34:02;;;;;;;;;;;;;;;;;;6155462;23;20327;-78
2023/02/22 04:36:33;;;;;;;;;;;;;;;;;;6153661;23;19944;-77
2023/02/22 04:38:59;;;;;;;;;;;;;;;;;;6178720;23;19944;-77
2023/02/22 04:41:26;;;;;;;;;;;;;;;;;;6178869;23;20331;-78
2023/02/22 04:43:51;;;;;;;;;;;;;;;;;;6179267;23;19905;-77
2023/02/22 04:46:20;;;;;;;;;;;;;;;;;;6154329;23;19919;-77
2023/02/22 04:48:45;;;;;;;;;;;;;;;;;;6178483;23;19991;-78
2023/02/22 04:51:12;;;;;;;;;;;;;;;;;;6178968;23;19944;-76
2023/02/22 04:53:42;;;;;;;;;;;;;;;;;;6178760;23;19963;-77
2023/02/22 04:56:08;;;;;;;;;;;;;;;;;;6178593;23;19908;-76
2023/02/22 04:58:35;;;;;;;;;;;;;;;;;;6153038;23;20261;-76
2023/02/22 05:01:00;;;;;;;;;;;;;;;;;;6178686;23;19948;-77
2023/02/22 05:03:26;;;;;;;;;;;;;;;;;;6154769;23;20258;-77
2023/02/22 05:05:51;;;;;;;;;;;;;;;;;;6154860;23;20250;-77
2023/02/22 05:08:16;;;;;;;;;;;;;;;;;;6178692;23;20031;-77
2023/02/22 05:10:42;;;;;;;;;;;;;;;;;;6155426;23;19909;-75
2023/02/22 05:13:08;;;;;;;;;;;;;;;;;;6155004;23;20290;-77
2023/02/22 05:15:33;;;;;;;;;;;;;;;;;;6154837;23;19912;-77
2023/02/22 05:17:58;;;;;;;;;;;;;;;;;;6153724;23;20354;-78
2023/02/22 05:20:24;;;;;;;;;;;;;;;;;;6152658;23;19913;-77
2023/02/22 05:22:50;;;;;;;;;;;;;;;;;;6155164;23;20335;-76
2023/02/22 05:25:16;;;;;;;;;;;;;;;;;;6154591;23;20013;-77
2023/02/22 05:27:41;;;;;;;;;;;;;;;;;;6178780;23;20322;-76
2023/02/22 05:30:08;;;;;;;;;;;;;;;;;;6155022;23;19951;-77
2023/02/22 05:32:34;;;;;;;;;;;;;;;;;;6155059;23;19908;-76
2023/02/22 05:34:59;;;;;;;;;;;;;;;;;;6154765;23;19909;-77
2023/02/22 05:37:24;;;;;;;;;;;;;;;;;;6178006;23;20246;-77
2023/02/22 05:39:50;;;;;;;;;;;;;;;;;;6177836;23;19935;-77
2023/02/22 05:42:15;;;;;;;;;;;;;;;;;;6154403;23;19909;-77
2023/02/22 05:44:41;;;;;;;;;;;;;;;;;;6152673;23;19908;-76
2023/02/22 05:47:06;;;;;;;;;;;;;;;;;;6154864;23;19932;-76
2023/02/22 05:49:31;;;;;;;;;;;;;;;;;;6154777;23;20334;-77
2023/02/22 05:51:58;;;;;;;;;;;;;;;;;;6155011;23;19943;-77
2023/02/22 05:54:23;;;;;;;;;;;;;;;;;;6154334;23;19915;-78
2023/02/22 05:56:49;;;;;;;;;;;;;;;;;;6154583;23;19909;-77
2023/02/22 05:59:14;;;;;;;;;;;;;;;;;;6154828;23;19909;-78
2023/02/22 06:01:39;;;;;;;;;;;;;;;;;;6177622;23;19919;-77
2023/02/22 06:04:05;;;;;;;;;;;;;;;;;;6178068;23;20254;-77
2023/02/22 06:06:30;;;;;;;;;;;;;;;;;;6177555;23;19988;-76
2023/02/22 06:08:55;;;;;;;;;;;;;;;;;;6153037;23;19940;-78
2023/02/22 06:11:21;;;;;;;;;;;;;;;;;;6154008;23;19916;-76
2023/02/22 06:13:46;;;;;;;;;;;;;;;;;;6154360;23;19908;-77
2023/02/22 06:16:12;;;;;;;;;;;;;;;;;;6153880;23;20294;-77
2023/02/22 06:18:37;;;;;;;;;;;;;;;;;;6154404;23;19944;-78
2023/02/22 06:21:03;;;;;;;;;;;;;;;;;;6154362;23;19916;-77
2023/02/22 06:23:28;;;;;;;;;;;;;;;;;;6154397;23;19915;-77
2023/02/22 06:25:53;;;;;;;;;;;;;;;;;;6153573;23;19936;-77
2023/02/22 06:28:19;;;;;;;;;;;;;;;;;;6152032;23;19909;-76
2023/02/22 06:30:44;;;;;;;;;;;;;;;;;;6152465;23;20338;-77
2023/02/22 06:33:10;;;;;;;;;;;;;;;;;;6152281;23;19912;-76
2023/02/22 06:35:35;;;;;;;;;;;;;;;;;;6152472;23;19995;-77
2023/02/22 06:38:01;;;;;;;;;;;;;;;;;;6153063;23;19916;-77
2023/02/22 06:40:28;;;;;;;;;;;;;;;;;;6177376;23;19940;-77
2023/02/22 06:42:53;;;;;;;;;;;;;;;;;;6152147;23;19920;-78
2023/02/22 06:45:19;;;;;;;;;;;;;;;;;;6153836;23;19908;-77
2023/02/22 06:47:45;;;;;;;;;;;;;;;;;;6152776;23;20357;-78
2023/02/22 06:50:10;;;;;;;;;;;;;;;;;;6152952;23;19911;-77
2023/02/22 06:52:35;;;;;;;;;;;;;;;;;;6152931;23;20220;-77
2023/02/22 06:55:01;;;;;;;;;;;;;;;;;;6177643;23;19912;-78
2023/02/22 06:57:26;;;;;;;;;;;;;;;;;;6154781;23;20354;-78
2023/02/22 06:59:51;;;;;;;;;;;;;;;;;;6152172;23;19995;-78
2023/02/22 07:02:17;;;;;;;;;;;;;;;;;;6154508;23;19909;-77
2023/02/22 07:04:42;;;;;;;;;;;;;;;;;;6154131;23;19932;-77
2023/02/22 07:07:08;;;;;;;;;;;;;;;;;;6151973;23;20335;-77
2023/02/22 07:09:33;;;;;;;;;;;;;;;;;;6178623;23;19909;-89
2023/02/22 07:11:58;;;;;;;;;;;;;;;;;;6154746;23;19916;-91
2023/02/22 07:14:24;;;;;;;;;;;;;;;;;;6131689;23;19983;-90
2023/02/22 07:16:49;;;;;;;;;;;;;;;;;;6132361;23;19913;-79
2023/02/22 07:19:15;;;;;;;;;;;;;;;;;;6156424;23;20295;-78
2023/02/22 07:21:40;;;;;;;;;;;;;;;;;;6179612;23;19908;-75
2023/02/22 07:24:05;;;;;;;;;;;;;;;;;;6156315;23;19908;-77
2023/02/22 07:26:31;;;;;;;;;;;;;;;;;;6156293;23;19916;-78
2023/02/22 07:28:56;;;;;;;;;;;;;;;;;;6157390;23;20031;-77
2023/02/22 07:31:22;;;;;;;;;;;;;;;;;;6156684;23;20250;-77
2023/02/22 07:33:47;;;;;;;;;;;;;;;;;;6156224;23;20326;-77
2023/02/22 07:36:16;;;;;;;;;;;;;;;;;;6154751;23;19908;-78
2023/02/22 07:38:42;;;;;;;;;;;;;;;;;;6156299;23;19963;-77
2023/02/22 07:41:07;;;;;;;;;;;;;;;;;;6155098;23;19916;-77
2023/02/22 07:43:33;;;;;;;;;;;;;;;;;;6154392;23;19916;-77
2023/02/22 07:45:58;;;;;;;;;;;;;;;;;;6154164;23;19916;-77
2023/02/22 07:48:24;;;;;;;;;;;;;;;;;;6179867;23;19905;-78
2023/02/22 07:50:49;;;;;;;;;;;;;;;;;;6156092;23;19912;-78
2023/02/22 07:53:14;;;;;;;;;;;;;;;;;;6178593;23;19904;-78
2023/02/22 07:55:40;;;;;;;;;;;;;;;;;;6154619;23;19913;-77
2023/02/22 07:58:05;;;;;;;;;;;;;;;;;;6178752;23;19912;-77
2023/02/22 08:00:31;;;;;;;;;;;;;;;;;;6153620;23;19995;-76
2023/02/22 08:02:56;;;;;;;;;;;;;;;;;;6153941;23;19909;-77
2023/02/22 08:05:22;;;;;;;;;;;;;;;;;;6155184;23;20348;-78
2023/02/22 08:07:47;;;;;;;;;;;;;;;;;;6155559;23;20378;-77
2023/02/22 08:10:13;;;;;;;;;;;;;;;;;;6154874;23;20290;-77
2023/02/22 08:12:38;;;;;;;;;;;;;;;;;;6155451;23;19940;-77
2023/02/22 08:15:03;;;;;;;;;;;;;;;;;;6154934;23;19916;-76
2023/02/22 08:17:29;;;;;;;;;;;;;;;;;;6178982;23;19915;-77
2023/02/22 08:19:55;;;;;;;;;;;;;;;;;;6179951;23;20252;-77
2023/02/22 08:22:20;;;;;;;;;;;;;;;;;;6156648;23;19913;-77
2023/02/22 08:24:45;;;;;;;;;;;;;;;;;;6155476;23;19963;-77
2023/02/22 08:27:11;;;;;;;;;;;;;;;;;;6156071;23;19916;-77
2023/02/22 08:29:36;;;;;;;;;;;;;;;;;;6155995;23;19991;-76
2023/02/22 08:32:02;;;;;;;;;;;;;;;;;;6154733;23;19987;-77
2023/02/22 08:34:27;;;;;;;;;;;;;;;;;;6156972;23;19909;-77
2023/02/22 08:36:53;;;;;;;;;;;;;;;;;;6155427;23;20389;-76
2023/02/22 08:39:18;;;;;;;;;;;;;;;;;;6156332;23;19984;-76
2023/02/22 08:41:43;;;;;;;;;;;;;;;;;;6180722;23;19916;-77
2023/02/22 08:44:09;;;;;;;;;;;;;;;;;;6160224;23;19962;-76
2023/02/22 08:46:34;;;;;;;;;;;;;;;;;;6166482;23;19904;-77
2023/02/22 08:49:00;;;;;;;;;;;;;;;;;;6166692;23;20350;-76
2023/02/22 08:51:25;;;;;;;;;;;;;;;;;;6194417;23;19912;-78
2023/02/22 08:53:52;;;;;;;;;;;;;;;;;;6191962;23;19931;-76
2023/02/22 08:56:17;;;;;;;;;;;;;;;;;;6162547;23;19959;-77
2023/02/22 08:58:43;;;;;;;;;;;;;;;;;;6182098;23;20290;-75
2023/02/22 09:01:08;;;;;;;;;;;;;;;;;;6156865;23;19917;-77
2023/02/22 09:03:33;;;;;;;;;;;;;;;;;;6154385;23;19909;-77
2023/02/22 09:05:59;;;;;;;;;;;;;;;;;;6154870;23;19955;-76
2023/02/22 09:08:24;;;;;;;;;;;;;;;;;;6155141;23;19912;-77
2023/02/22 09:10:50;;;;;;;;;;;;;;;;;;6155045;23;20258;-77
2023/02/22 09:13:15;;;;;;;;;;;;;;;;;;6153519;23;19991;-77
2023/02/22 09:15:43;;;;;;;;;;;;;;;;;;6178613;23;19916;-78
2023/02/22 09:18:09;;;;;;;;;;;;;;;;;;6179256;23;19913;-77
2023/02/22 09:20:34;;;;;;;;;;;;;;;;;;6179533;23;20178;-77
2023/02/22 09:23:01;;;;;;;;;;;;;;;;;;6155561;23;19909;-76
2023/02/22 09:25:27;;;;;;;;;;;;;;;;;;6154943;23;19915;-77
2023/02/22 09:27:52;;;;;;;;;;;;;;;;;;6155319;23;19929;-77
2023/02/22 09:30:18;;;;;;;;;;;;;;;;;;6154699;23;20223;-78
2023/02/22 09:32:43;;;;;;;;;;;;;;;;;;6155232;23;20326;-77
2023/02/22 09:35:08;;;;;;;;;;;;;;;;;;6153297;23;19970;-77
2023/02/22 09:37:34;;;;;;;;;;;;;;;;;;6152835;23;19915;-77
2023/02/22 09:40:01;;;;;;;;;;;;;;;;;;6154289;23;19916;-77
2023/02/22 09:42:26;;;;;;;;;;;;;;;;;;6153191;23;19908;-78
2023/02/22 09:44:55;;;;;;;;;;;;;;;;;;6154234;23;19912;-77
2023/02/22 09:47:20;;;;;;;;;;;;;;;;;;6153640;23;20228;-77
2023/02/22 09:49:46;;;;;;;;;;;;;;;;;;6178269;23;19932;-77
2023/02/22 09:52:11;;;;;;;;;;;;;;;;;;6177201;23;19905;-78
2023/02/22 09:54:36;;;;;;;;;;;;;;;;;;6177699;23;19987;-78
2023/02/22 09:57:02;;;;;;;;;;;;;;;;;;6152404;23;20266;-76
2023/02/22 09:59:27;;;;;;;;;;;;;;;;;;6154716;23;19955;-77
2023/02/22 10:01:53;;;;;;;;;;;;;;;;;;6152850;23;19912;-77
2023/02/22 10:04:18;;;;;;;;;;;;;;;;;;6154484;23;19909;-77
2023/02/22 10:06:43;;;;;;;;;;;;;;;;;;6176633;23;20247;-77
2023/02/22 10:09:09;;;;;;;;;;;;;;;;;;6154621;23;19909;-78
2023/02/22 10:11:36;;;;;;;;;;;;;;;;;;6154409;23;19945;-77
2023/02/22 10:14:01;;;;;;;;;;;;;;;;;;6177305;23;20338;-77
2023/02/22 10:16:27;;;;;;;;;;;;;;;;;;6152261;23;19963;-77
2023/02/22 10:18:53;;;;;;;;;;;;;;;;;;6154185;23;19915;-77
2023/02/22 10:21:20;;;;;;;;;;;;;;;;;;6177430;23;19981;-78
2023/02/22 10:23:45;;;;;;;;;;;;;;;;;;6151873;23;19905;-78
2023/02/22 10:26:11;;;;;;;;;;;;;;;;;;6153623;23;19908;-78
2023/02/22 10:28:36;;;;;;;;;;;;;;;;;;6177714;23;20058;-77
2023/02/22 10:31:02;;;;;;;;;;;;;;;;;;6154508;23;20246;-77
2023/02/22 10:33:27;;;;;;;;;;;;;;;;;;6154579;23;19908;-77
2023/02/22 10:35:52;;;;;;;;;;;;;;;;;;6153946;23;19943;-78
2023/02/22 10:38:19;;;;;;;;;;;;;;;;;;6152207;23;20326;-76
2023/02/22 10:40:44;;;;;;;;;;;;;;;;;;6152264;23;19924;-76
2023/02/22 10:43:10;;;;;;;;;;;;;;;;;;6154578;23;19913;-77
2023/02/22 10:45:35;;;;;;;;;;;;;;;;;;6154093;23;20362;-77
2023/02/22 10:48:01;;;;;;;;;;;;;;;;;;6153779;23;19908;-78
2023/02/22 10:50:26;;;;;;;;;;;;;;;;;;6156174;23;19909;-78
2023/02/22 10:52:54;;;;;;;;;;;;;;;;;;6154643;23;20238;-76
2023/02/22 10:55:19;;;;;;;;;;;;;;;;;;6155356;23;19936;-78
2023/02/22 10:57:44;;;;;;;;;;;;;;;;;;6156579;23;19916;-77
2023/02/22 11:00:12;;;;;;;;;;;;;;;;;;6156604;23;20000;-77
2023/02/22 11:02:38;;;;;;;;;;;;;;;;;;6156741;23;19905;-78
2023/02/22 11:05:03;;;;;;;;;;;;;;;;;;6179354;23;20000;-78
2023/02/22 11:07:28;;;;;;;;;;;;;;;;;;6156428;23;19915;-77
2023/02/22 11:09:54;;;;;;;;;;;;;;;;;;6156316;23;19908;-78
2023/02/22 11:12:19;;;;;;;;;;;;;;;;;;6155586;23;20270;-77
2023/02/22 11:14:45;;;;;;;;;;;;;;;;;;6153909;23;19915;-77
2023/02/22 11:17:12;;;;;;;;;;;;;;;;;;6154530;23;19959;-77
2023/02/22 11:19:38;;;;;;;;;;;;;;;;;;6179301;23;19916;-77
2023/02/22 11:22:03;;;;;;;;;;;;;;;;;;6179406;23;19909;-78
2023/02/22 11:24:30;;;;;;;;;;;;;;;;;;6156066;23;20327;-77
2023/02/22 11:26:55;;;;;;;;;;;;;;;;;;6155451;23;19909;-77
2023/02/22 11:29:21;;;;;;;;;;;;;;;;;;6155085;23;20406;-77
2023/02/22 11:31:48;;;;;;;;;;;;;;;;;;6156152;23;19916;-78
2023/02/22 11:34:13;;;;;;;;;;;;;;;;;;6179370;23;19915;-78
2023/02/22 11:36:41;;;;;;;;;;;;;;;;;;6179064;23;19912;-76
2023/02/22 11:39:10;;;;;;;;;;;;;;;;;;6155961;23;19920;-77
2023/02/22 11:41:35;;;;;;;;;;;;;;;;;;6155947;23;20036;-77
2023/02/22 11:44:01;;;;;;;;;;;;;;;;;;6154369;23;20335;-77
2023/02/22 11:46:27;;;;;;;;;;;;;;;;;;6155247;23;19908;-77
2023/02/22 11:48:53;;;;;;;;;;;;;;;;;;6157052;23;19957;-78
2023/02/22 11:51:18;;;;;;;;;;;;;;;;;;6156495;23;19909;-78
2023/02/22 11:53:44;;;;;;;;;;;;;;;;;;6156690;23;19909;-78
2023/02/22 11:56:10;;;;;;;;;;;;;;;;;;6154185;23;19962;-78
2023/02/22 11:58:36;;;;;;;;;;;;;;;;;;6155946;23;19919;-77
2023/02/22 12:01:01;;;;;;;;;;;;;;;;;;6154620;23;19919;-78
2023/02/22 12:03:27;;;;;;;;;;;;;;;;;;6154327;23;19917;-78
2023/02/22 12:05:58;;;;;;;;;;;;;;;;;;6157293;23;19908;-76
2023/02/22 12:08:23;;;;;;;;;;;;;;;;;;6154091;23;19915;-78
2023/02/22 12:10:49;;;;;;;;;;;;;;;;;;6159821;23;19909;-78
2023/02/22 12:13:15;;;;;;;;;;;;;;;;;;6160396;23;19904;-85
2023/02/22 12:15:41;;;;;;;;;;;;;;;;;;6172477;23;19928;-86
2023/02/22 12:18:06;;;;;;;;;;;;;;;;;;6199928;23;20302;-86
2023/02/22 12:20:32;;;;;;;;;;;;;;;;;;6153066;23;19900;-85
2023/02/22 12:22:57;;;;;;;;;;;;;;;;;;6159775;23;19991;-77
2023/02/22 12:25:23;;;;;;;;;;;;;;;;;;6156981;23;19978;-78
2023/02/22 12:27:48;;;;;;;;;;;;;;;;;;6162356;23;19972;-77
2023/02/22 12:30:15;;;;;;;;;;;;;;;;;;6187179;23;19916;-77
2023/02/22 12:32:43;;;;;;;;;;;;;;;;;;6156042;23;19923;-77
2023/02/22 12:35:08;;;;;;;;;;;;;;;;;;6154719;23;19909;-75
2023/02/22 12:37:33;;;;;;;;;;;;;;;;;;6155245;23;19955;-74
2023/02/22 12:39:59;;;;;;;;;;;;;;;;;;6154627;23;19966;-77
2023/02/22 12:42:24;;;;;;;;;;;;;;;;;;6155030;23;20327;-77
2023/02/22 12:44:50;;;;;;;;;;;;;;;;;;6154518;23;20262;-77
2023/02/22 12:47:15;;;;;;;;;;;;;;;;;;6154940;23;19908;-77
2023/02/22 12:49:40;;;;;;;;;;;;;;;;;;6154709;23;19909;-77
2023/02/22 12:52:06;;;;;;;;;;;;;;;;;;6178770;23;20219;-79
2023/02/22 12:54:31;;;;;;;;;;;;;;;;;;6155560;23;19908;-78
2023/02/22 12:56:57;;;;;;;;;;;;;;;;;;6153493;23;20453;-78
2023/02/22 12:59:23;;;;;;;;;;;;;;;;;;6154445;23;19920;-79
2023/02/22 13:01:48;;;;;;;;;;;;;;;;;;6155298;23;20323;-79
2023/02/22 13:04:15;;;;;;;;;;;;;;;;;;6155214;23;19972;-78
2023/02/22 13:06:40;;;;;;;;;;;;;;;;;;6154919;23;19908;-79
2023/02/22 13:09:06;;;;;;;;;;;;;;;;;;6153067;23;19944;-79
2023/02/22 13:11:31;;;;;;;;;;;;;;;;;;6178020;23;19908;-78
2023/02/22 13:13:56;;;;;;;;;;;;;;;;;;6154638;23;19916;-79
2023/02/22 13:16:22;;;;;;;;;;;;;;;;;;6152831;23;20338;-77
2023/02/22 13:18:47;;;;;;;;;;;;;;;;;;6178130;23;19913;-78
2023/02/22 13:21:13;;;;;;;;;;;;;;;;;;6153312;23;19909;-78
2023/02/22 13:23:38;;;;;;;;;;;;;;;;;;6178583;23;20415;-79
2023/02/22 13:26:06;;;;;;;;;;;;;;;;;;6155251;23;20334;-79
2023/02/22 13:28:32;;;;;;;;;;;;;;;;;;6178127;23;19947;-79
2023/02/22 13:30:57;;;;;;;;;;;;;;;;;;6153288;23;19936;-79
2023/02/22 13:33:23;;;;;;;;;;;;;;;;;;6154736;23;19936;-77
2023/02/22 13:35:48;;;;;;;;;;;;;;;;;;6152997;23;20309;-79
2023/02/22 13:38:13;;;;;;;;;;;;;;;;;;6153201;23;19951;-79
2023/02/22 13:40:39;;;;;;;;;;;;;;;;;;6154648;23;19963;-79
2023/02/22 13:43:05;;;;;;;;;;;;;;;;;;6177755;23;19983;-79
2023/02/22 13:45:30;;;;;;;;;;;;;;;;;;6153563;23;19931;-78
2023/02/22 13:47:56;;;;;;;;;;;;;;;;;;6177680;23;19915;-79
2023/02/22 13:50:21;;;;;;;;;;;;;;;;;;6154171;23;20402;-78
2023/02/22 13:52:47;;;;;;;;;;;;;;;;;;6152878;23;19913;-78
2023/02/22 13:55:12;;;;;;;;;;;;;;;;;;6154596;23;19905;-78
2023/02/22 13:57:38;;;;;;;;;;;;;;;;;;6153161;23;20008;-85
2023/02/22 14:00:05;;;;;;;;;;;;;;;;;;6156944;23;19913;-86
2023/02/22 14:02:35;;;;;;;;;;;;;;;;;;6153306;23;19959;-86
2023/02/22 14:05:00;;;;;;;;;;;;;;;;;;6160218;23;20334;-85
2023/02/22 14:07:28;;;;;;;;;;;;;;;;;;6154486;23;19904;-85
2023/02/22 14:09:54;;;;;;;;;;;;;;;;;;6178314;23;20331;-87
2023/02/22 14:12:20;;;;;;;;;;;;;;;;;;6154815;23;19909;-87
2023/02/22 14:14:45;;;;;;;;;;;;;;;;;;6155762;23;19915;-88
2023/02/22 14:17:11;;;;;;;;;;;;;;;;;;6179239;23;19909;-85
2023/02/22 14:19:37;;;;;;;;;;;;;;;;;;6178558;23;20361;-87
2023/02/22 14:22:02;;;;;;;;;;;;;;;;;;6153880;23;19912;-87
2023/02/22 14:24:28;;;;;;;;;;;;;;;;;;6154084;23;20055;-82
2023/02/22 14:26:54;;;;;;;;;;;;;;;;;;6178468;23;19927;-88
2023/02/22 14:29:20;;;;;;;;;;;;;;;;;;6129584;23;19987;-88
2023/02/22 14:31:54;;;;;;;;;;;;;;;;;;6159031;23;19905;-90
2023/02/22 14:34:29;;;;;;;;;;;;;;;;;;6148567;23;19908;-91
2023/02/22 14:36:54;;;;;;;;;;;;;;;;;;6148438;23;19924;-91
2023/02/22 14:39:30;;;;;;;;;;;;;;;;;;6149735;23;19912;-89
2023/02/22 14:41:56;;;;;;;;;;;;;;;;;;6150426;23;19920;-90
2023/02/22 14:44:22;;;;;;;;;;;;;;;;;;6132470;23;19909;-76
2023/02/22 14:46:48;;;;;;;;;;;;;;;;;;6153193;23;19935;-77
2023/02/22 14:49:17;;;;;;;;;;;;;;;;;;6176898;23;19908;-77
2023/02/22 14:51:43;;;;;;;;;;;;;;;;;;6150743;23;19946;-78
2023/02/22 14:54:08;;;;;;;;;;;;;;;;;;6175483;23;19909;-77
2023/02/22 14:56:35;;;;;;;;;;;;;;;;;;6153094;23;19908;-77
2023/02/22 14:59:00;;;;;;;;;;;;;;;;;;6152288;23;19912;-76
2023/02/22 15:01:26;;;;;;;;;;;;;;;;;;6153216;23;20341;-78
2023/02/22 15:03:57;;;;;;;;;;;;;;;;;;6154657;23;19915;-77
2023/02/22 15:06:23;;;;;;;;;;;;;;;;;;6177328;23;19916;-76
2023/02/22 15:08:48;;;;;;;;;;;;;;;;;;6151999;23;19909;-77
2023/02/22 15:11:13;;;;;;;;;;;;;;;;;;6177553;23;19932;-76
2023/02/22 15:13:39;;;;;;;;;;;;;;;;;;6155209;23;19913;-77
2023/02/22 15:16:07;;;;;;;;;;;;;;;;;;6154019;23;19963;-77
2023/02/22 15:18:33;;;;;;;;;;;;;;;;;;6154407;23;19932;-78
2023/02/22 15:20:58;;;;;;;;;;;;;;;;;;6152821;23;19913;-76
2023/02/22 15:23:23;;;;;;;;;;;;;;;;;;6154954;23;19908;-76
2023/02/22 15:25:49;;;;;;;;;;;;;;;;;;6152932;23;19915;-77
2023/02/22 15:28:14;;;;;;;;;;;;;;;;;;6177489;23;19961;-77
2023/02/22 15:30:40;;;;;;;;;;;;;;;;;;6154145;23;19913;-77
2023/02/22 15:33:06;;;;;;;;;;;;;;;;;;6154385;23;19915;-76
2023/02/22 15:35:32;;;;;;;;;;;;;;;;;;6154441;23;19909;-76
2023/02/22 15:37:57;;;;;;;;;;;;;;;;;;6179670;23;19983;-77
2023/02/22 15:40:23;;;;;;;;;;;;;;;;;;6156416;23;19940;-77
2023/02/22 15:42:48;;;;;;;;;;;;;;;;;;6184260;23;19909;-78
2023/02/22 15:45:13;;;;;;;;;;;;;;;;;;6162248;23;19908;-77
2023/02/22 15:47:39;;;;;;;;;;;;;;;;;;6187154;23;19944;-77
2023/02/22 15:50:04;;;;;;;;;;;;;;;;;;6160178;23;20283;-77
2023/02/22 15:52:30;;;;;;;;;;;;;;;;;;6160587;23;19912;-78
2023/02/22 15:54:56;;;;;;;;;;;;;;;;;;6162776;23;19976;-78
2023/02/22 15:57:21;;;;;;;;;;;;;;;;;;6188653;23;19960;-79
2023/02/22 15:59:47;;;;;;;;;;;;;;;;;;6167771;23;19908;-78
2023/02/22 16:02:12;;;;;;;;;;;;;;;;;;6169151;23;19908;-77
2023/02/22 16:04:37;;;;;;;;;;;;;;;;;;6162115;23;19916;-77
2023/02/22 16:07:03;;;;;;;;;;;;;;;;;;6155205;23;19908;-78
2023/02/22 16:09:29;;;;;;;;;;;;;;;;;;6155341;23;20250;-78
2023/02/22 16:11:54;;;;;;;;;;;;;;;;;;6178675;23;19983;-77
2023/02/22 16:14:19;;;;;;;;;;;;;;;;;;6153631;23;19993;-76
2023/02/22 16:16:47;;;;;;;;;;;;;;;;;;6155513;23;19915;-76
2023/02/22 16:19:13;;;;;;;;;;;;;;;;;;6178818;23;20239;-77
2023/02/22 16:21:38;;;;;;;;;;;;;;;;;;6178607;23;19996;-77
2023/02/22 16:24:03;;;;;;;;;;;;;;;;;;6178466;23;19915;-76
2023/02/22 16:26:29;;;;;;;;;;;;;;;;;;6155245;23;19932;-77
2023/02/22 16:28:55;;;;;;;;;;;;;;;;;;6178269;23;19908;-77
2023/02/22 16:31:20;;;;;;;;;;;;;;;;;;6153671;23;19913;-77
2023/02/22 16:33:45;;;;;;;;;;;;;;;;;;6153513;23;19983;-78
2023/02/22 16:36:11;;;;;;;;;;;;;;;;;;6154992;23;20246;-78